Terminal Aerodrome Forecast
Issued by NWS

Home | Current Version | Previous Version | Text Only | Print | Product List | Glossary On
Versions: 1 2 3 4 5 6 7 8 9 10 11 12 13 14 15 16 17 18 19 20 21 22 23 24
000
FTPQ31 PGUM 270523
TAFGUM
TAF

TAF
PKMJ 270523Z 2706/2806 04014KT P6SM VCSH SCT015 SCT040 BKN120
      TEMPO 2706/2710 5SM SHRA SCT015 OVC040=

USA.gov is the U.S. government's official web portal to all federal, state and local government web resources and services.